Time;durP1;ratioP1;P1;durP2;ratioP2;P2;SDS_P1;SDS_P2;PMS_P1;PMS_P2;Temp;Humidity;BMP_temperature;BMP_pressure;BME280_temperature;BME280_humidity;BME280_pressure;Samples;Min_cycle;Max_cycle;Signal;HPM_P1;HPM_P2
2023/08/30 00:01:53;;;;;;;;;;;;;;;17.17;77.29;100301.78;4197435;28;19925;-69
2023/08/30 00:03:55;;;;;;;;;;;;;;;17.17;77.57;100300.94;4198192;28;20027;-68
2023/08/30 00:06:02;;;;;;;;;;;;;;;17.16;77.36;100300.09;4195862;28;20023;-68
2023/08/30 00:08:04;;;;;;;;;;;;;;;17.15;77.28;100306.66;4197572;28;20470;-68
2023/08/30 00:10:06;;;;;;;;;;;;;;;17.16;77.51;100304.72;4196862;28;20023;-69
2023/08/30 00:12:08;;;;;;;;;;;;;;;17.15;77.16;100303.91;4197537;28;20449;-68
2023/08/30 00:14:10;;;;;;;;;;;;;;;17.15;77.32;100301.19;4197366;28;20023;-68
2023/08/30 00:16:12;;;;;;;;;;;;;;;17.15;77.42;100295.72;4197581;28;20018;-68
2023/08/30 00:18:13;;;;;;;;;;;;;;;17.15;77.40;100286.69;4197058;28;20091;-68
2023/08/30 00:20:15;;;;;;;;;;;;;;;17.15;77.46;100298.47;4202398;28;20028;-68
2023/08/30 00:22:18;;;;;;;;;;;;;;;17.15;77.45;100303.06;4196699;28;20015;-69
2023/08/30 00:24:20;;;;;;;;;;;;;;;17.14;77.48;100299.50;4196666;28;20026;-69
2023/08/30 00:26:21;;;;;;;;;;;;;;;17.15;77.36;100306.66;4194481;28;20026;-68
2023/08/30 00:28:23;;;;;;;;;;;;;;;17.15;77.36;100300.34;4196452;28;20389;-68
2023/08/30 00:30:25;;;;;;;;;;;;;;;17.15;77.26;100300.34;4196688;28;20434;-68
2023/08/30 00:32:27;;;;;;;;;;;;;;;17.14;77.17;100304.16;4179078;28;20020;-68
2023/08/30 00:34:29;;;;;;;;;;;;;;;17.14;77.13;100304.97;4197084;28;20019;-68
2023/08/30 00:36:31;;;;;;;;;;;;;;;17.14;77.36;100302.25;4196184;28;20027;-67
2023/08/30 00:38:35;;;;;;;;;;;;;;;17.13;77.25;100297.84;4195330;28;20019;-68
2023/08/30 00:40:40;;;;;;;;;;;;;;;17.14;77.17;100295.97;4178275;28;20027;-68
2023/08/30 00:42:42;;;;;;;;;;;;;;;17.13;77.42;100289.66;4195420;28;20024;-68
2023/08/30 00:44:44;;;;;;;;;;;;;;;17.14;77.39;100282.31;4195424;28;20447;-69
2023/08/30 00:46:47;;;;;;;;;;;;;;;17.14;77.33;100285.03;4212154;28;20015;-68
2023/08/30 00:48:48;;;;;;;;;;;;;;;17.13;77.35;100277.91;4195437;28;20024;-68
2023/08/30 00:50:51;;;;;;;;;;;;;;;17.13;77.45;100288.81;4195398;28;20477;-69
2023/08/30 00:52:53;;;;;;;;;;;;;;;17.11;77.13;100276.28;4194725;28;20011;-68
2023/08/30 00:54:56;;;;;;;;;;;;;;;17.13;77.35;100284.19;4194978;28;20023;-69
2023/08/30 00:56:58;;;;;;;;;;;;;;;17.12;77.22;100277.09;4196587;28;19928;-68
2023/08/30 00:59:00;;;;;;;;;;;;;;;17.11;77.31;100275.41;4196714;28;20051;-69
2023/08/30 01:01:04;;;;;;;;;;;;;;;17.12;77.37;100277.09;4195184;28;20011;-69
2023/08/30 01:03:06;;;;;;;;;;;;;;;17.11;77.52;100286.31;4194960;28;20023;-69
2023/08/30 01:05:08;;;;;;;;;;;;;;;17.09;77.47;100288.47;4196633;28;20016;-68
2023/08/30 01:07:11;;;;;;;;;;;;;;;17.08;77.47;100295.84;4195780;28;20019;-68
2023/08/30 01:09:13;;;;;;;;;;;;;;;17.08;77.48;100294.97;4193789;28;20410;-69
2023/08/30 01:11:20;;;;;;;;;;;;;;;17.08;77.38;100304.00;4195386;28;20011;-68
2023/08/30 01:13:22;;;;;;;;;;;;;;;17.06;77.32;100303.38;4195914;28;20027;-69
2023/08/30 01:15:23;;;;;;;;;;;;;;;17.06;77.51;100300.66;4196144;28;20011;-69
2023/08/30 01:17:25;;;;;;;;;;;;;;;17.07;77.33;100298.78;4202841;28;19934;-69
2023/08/30 01:19:32;;;;;;;;;;;;;;;17.07;77.58;100306.97;4195657;28;20003;-68
2023/08/30 01:21:38;;;;;;;;;;;;;;;17.07;77.33;100298.78;4194734;28;20075;-68
2023/08/30 01:23:41;;;;;;;;;;;;;;;17.04;77.48;100305.53;4196352;28;20539;-69
2023/08/30 01:25:47;;;;;;;;;;;;;;;17.04;77.60;100301.97;4186511;28;20023;-69
2023/08/30 01:27:52;;;;;;;;;;;;;;;17.03;77.50;100309.31;4210955;28;20015;-68
2023/08/30 01:29:54;;;;;;;;;;;;;;;17.02;77.75;100312.25;4203027;28;19924;-69
2023/08/30 01:31:55;;;;;;;;;;;;;;;17.01;77.85;100310.63;4194981;28;20015;-69
2023/08/30 01:33:59;;;;;;;;;;;;;;;17.00;77.93;100314.41;4194517;28;20020;-68
2023/08/30 01:36:01;;;;;;;;;;;;;;;16.98;77.74;100311.91;4195048;28;20036;-69
2023/08/30 01:38:03;;;;;;;;;;;;;;;16.96;77.99;100305.84;4195898;28;20027;-68
2023/08/30 01:40:06;;;;;;;;;;;;;;;16.96;78.00;100310.47;4195534;28;20003;-68
2023/08/30 01:42:07;;;;;;;;;;;;;;;16.95;77.93;100309.63;4195961;28;20023;-69
2023/08/30 01:44:10;;;;;;;;;;;;;;;16.95;78.04;100303.34;4194338;28;20023;-69
2023/08/30 01:46:12;;;;;;;;;;;;;;;16.94;78.03;100316.13;4194336;28;20027;-68
2023/08/30 01:48:15;;;;;;;;;;;;;;;16.93;78.10;100317.22;4196437;28;20011;-68
2023/08/30 01:50:17;;;;;;;;;;;;;;;16.92;77.92;100326.47;4186336;28;20036;-69
2023/08/30 01:52:18;;;;;;;;;;;;;;;16.91;78.01;100328.38;4210930;28;20378;-68
2023/08/30 01:54:20;;;;;;;;;;;;;;;16.90;77.86;100326.69;4193410;28;20015;-69
2023/08/30 01:56:22;;;;;;;;;;;;;;;16.90;77.86;100328.59;4194357;28;20008;-68
2023/08/30 01:58:24;;;;;;;;;;;;;;;16.89;78.07;100325.00;4186927;28;20024;-69
2023/08/30 02:00:28;;;;;;;;;;;;;;;16.88;77.72;100317.91;4186557;28;20019;-69
2023/08/30 02:02:29;;;;;;;;;;;;;;;16.88;77.97;100320.63;4186476;28;20470;-69
2023/08/30 02:04:32;;;;;;;;;;;;;;;16.88;77.83;100308.88;4194261;28;19978;-69
2023/08/30 02:06:35;;;;;;;;;;;;;;;16.87;78.05;100316.22;4195234;28;20018;-69
2023/08/30 02:08:37;;;;;;;;;;;;;;;16.86;77.84;100314.56;4194988;28;20027;-68
2023/08/30 02:10:41;;;;;;;;;;;;;;;16.87;77.72;100318.97;4194846;28;19983;-69
2023/08/30 02:12:44;;;;;;;;;;;;;;;16.87;78.02;100316.22;4186450;28;20027;-69
2023/08/30 02:14:47;;;;;;;;;;;;;;;16.86;77.88;100319.19;4195521;28;20030;-69
2023/08/30 02:16:50;;;;;;;;;;;;;;;16.86;78.11;100319.19;4195405;28;20022;-69
2023/08/30 02:18:51;;;;;;;;;;;;;;;16.85;77.86;100321.06;4177150;28;20605;-69
2023/08/30 02:20:55;;;;;;;;;;;;;;;16.84;77.92;100318.56;4195200;28;19931;-69
2023/08/30 02:22:59;;;;;;;;;;;;;;;16.83;77.75;100314.97;4193634;28;20011;-69
2023/08/30 02:25:04;;;;;;;;;;;;;;;16.82;77.91;100318.78;4194397;28;20011;-69
2023/08/30 02:27:06;;;;;;;;;;;;;;;16.82;77.95;100315.22;4194144;28;20019;-70
2023/08/30 02:29:08;;;;;;;;;;;;;;;16.80;77.89;100320.88;4194892;28;20019;-69
2023/08/30 02:31:13;;;;;;;;;;;;;;;16.80;77.88;100317.34;4195460;28;19956;-69
2023/08/30 02:33:16;;;;;;;;;;;;;;;16.76;77.78;100315.06;4195047;28;20024;-69
2023/08/30 02:35:20;;;;;;;;;;;;;;;16.78;77.86;100311.28;4195283;28;20051;-69
2023/08/30 02:37:22;;;;;;;;;;;;;;;16.78;77.95;100305.84;4200550;28;20023;-69
2023/08/30 02:39:26;;;;;;;;;;;;;;;16.78;77.71;100311.28;4195087;28;20027;-69
2023/08/30 02:41:28;;;;;;;;;;;;;;;16.76;77.90;100306.88;4193732;28;19950;-69
2023/08/30 02:43:30;;;;;;;;;;;;;;;16.77;77.77;100307.75;4195578;28;20015;-69
2023/08/30 02:45:32;;;;;;;;;;;;;;;16.76;77.84;100304.16;4196044;28;20018;-69
2023/08/30 02:47:34;;;;;;;;;;;;;;;16.76;77.83;100306.06;4186296;28;20389;-69
2023/08/30 02:49:36;;;;;;;;;;;;;;;16.75;77.83;100298.94;4194540;28;20024;-68
2023/08/30 02:51:38;;;;;;;;;;;;;;;16.74;77.96;100300.84;4193984;28;20298;-69
2023/08/30 02:53:40;;;;;;;;;;;;;;;16.73;77.82;100295.63;4194925;28;20023;-69
2023/08/30 02:55:42;;;;;;;;;;;;;;;16.73;77.86;100295.63;4193831;28;20015;-69
2023/08/30 02:57:46;;;;;;;;;;;;;;;16.73;77.77;100285.53;4195482;28;20023;-69
2023/08/30 02:59:49;;;;;;;;;;;;;;;16.72;77.93;100286.63;4195636;28;20035;-69
2023/08/30 03:01:51;;;;;;;;;;;;;;;16.71;78.14;100279.47;4194041;28;20023;-69
2023/08/30 03:03:54;;;;;;;;;;;;;;;16.71;78.09;100275.94;4193379;28;20470;-69
2023/08/30 03:05:57;;;;;;;;;;;;;;;16.69;78.23;100272.59;4193193;28;20019;-69
2023/08/30 03:08:00;;;;;;;;;;;;;;;16.68;78.05;100270.94;4194206;28;20018;-69
2023/08/30 03:10:03;;;;;;;;;;;;;;;16.66;78.12;100262.13;4193755;28;20023;-69
2023/08/30 03:12:07;;;;;;;;;;;;;;;16.66;77.96;100271.16;4192395;28;20506;-68
2023/08/30 03:14:11;;;;;;;;;;;;;;;16.65;77.77;100266.75;4193527;28;20019;-68
2023/08/30 03:16:13;;;;;;;;;;;;;;;16.64;78.07;100261.53;4194704;28;20035;-70
2023/08/30 03:18:15;;;;;;;;;;;;;;;16.64;77.79;100259.63;4194258;28;20044;-69
2023/08/30 03:20:17;;;;;;;;;;;;;;;16.64;77.81;100258.81;4193588;28;20616;-69
2023/08/30 03:22:21;;;;;;;;;;;;;;;16.63;77.96;100260.72;4196424;28;20031;-69
2023/08/30 03:24:24;;;;;;;;;;;;;;;16.63;77.49;100259.88;4209661;28;20502;-69
2023/08/30 03:26:25;;;;;;;;;;;;;;;16.63;77.67;100270.78;4194851;28;20355;-69
2023/08/30 03:28:30;;;;;;;;;;;;;;;16.62;77.65;100263.66;4193164;28;20521;-69
2023/08/30 03:30:31;;;;;;;;;;;;;;;16.61;77.56;100279.19;4193114;28;20032;-68
2023/08/30 03:32:33;;;;;;;;;;;;;;;16.60;77.70;100272.09;4201642;28;19928;-69
2023/08/30 03:34:35;;;;;;;;;;;;;;;16.58;77.49;100277.75;4209715;28;20023;-68
2023/08/30 03:36:38;;;;;;;;;;;;;;;16.58;77.72;100287.81;4194989;28;20011;-68
2023/08/30 03:38:40;;;;;;;;;;;;;;;16.58;77.58;100291.38;4193310;28;20027;-68
2023/08/30 03:40:42;;;;;;;;;;;;;;;16.57;77.63;100295.16;4195865;28;20023;-68
2023/08/30 03:42:44;;;;;;;;;;;;;;;16.58;77.56;100298.72;4196421;28;20011;-68
2023/08/30 03:44:45;;;;;;;;;;;;;;;16.56;77.53;100298.94;4198286;28;20023;-68
2023/08/30 03:46:48;;;;;;;;;;;;;;;16.55;77.64;100299.16;4179692;28;20032;-68
2023/08/30 03:48:50;;;;;;;;;;;;;;;16.54;77.39;100298.34;4202761;28;20015;-68
2023/08/30 03:50:53;;;;;;;;;;;;;;;16.54;77.47;100300.25;4196008;28;20123;-69
2023/08/30 03:52:54;;;;;;;;;;;;;;;16.54;77.47;100311.16;4197045;28;20038;-69
2023/08/30 03:54:58;;;;;;;;;;;;;;;16.52;77.63;100314.09;4197580;28;20059;-69
2023/08/30 03:57:00;;;;;;;;;;;;;;;16.51;77.56;100308.88;4196191;28;20477;-69
2023/08/30 03:59:02;;;;;;;;;;;;;;;16.51;77.28;100306.16;4197826;28;20022;-68
2023/08/30 04:01:06;;;;;;;;;;;;;;;16.49;77.50;100306.38;4196692;28;20400;-69
2023/08/30 04:03:09;;;;;;;;;;;;;;;16.50;77.46;100307.19;4187973;28;20023;-69
2023/08/30 04:05:11;;;;;;;;;;;;;;;16.50;77.36;100301.75;4197307;28;20458;-68
2023/08/30 04:07:13;;;;;;;;;;;;;;;16.49;77.38;100289.16;4195587;28;20071;-68
2023/08/30 04:09:15;;;;;;;;;;;;;;;16.49;77.21;100297.34;4195495;28;20028;-68
2023/08/30 04:11:19;;;;;;;;;;;;;;;16.48;77.73;100304.69;4195423;28;20019;-68
2023/08/30 04:13:21;;;;;;;;;;;;;;;16.48;77.31;100296.53;4196976;28;19929;-68
2023/08/30 04:15:23;;;;;;;;;;;;;;;16.46;77.40;100293.22;4196728;28;19996;-68
2023/08/30 04:17:25;;;;;;;;;;;;;;;16.46;77.35;100292.38;4197325;28;20433;-69
2023/08/30 04:19:27;;;;;;;;;;;;;;;16.45;77.26;100294.25;4196842;28;20785;-69
2023/08/30 04:21:29;;;;;;;;;;;;;;;16.45;77.30;100302.44;4196801;28;20035;-68
2023/08/30 04:23:31;;;;;;;;;;;;;;;16.44;77.32;100300.78;4196686;28;20007;-67
2023/08/30 04:25:34;;;;;;;;;;;;;;;16.44;77.53;100300.78;4195316;28;20022;-68
2023/08/30 04:27:39;;;;;;;;;;;;;;;16.43;77.56;100301.84;4196830;28;20008;-67
2023/08/30 04:29:44;;;;;;;;;;;;;;;16.43;77.33;100311.91;4195196;28;20023;-67
2023/08/30 04:31:46;;;;;;;;;;;;;;;16.41;77.68;100314.88;4195539;28;20016;-68
2023/08/30 04:33:49;;;;;;;;;;;;;;;16.41;77.36;100312.13;4195831;28;19978;-68
2023/08/30 04:35:52;;;;;;;;;;;;;;;16.41;77.68;100317.59;4197395;28;20011;-67
2023/08/30 04:37:54;;;;;;;;;;;;;;;16.39;77.52;100320.53;4204166;28;20007;-68
2023/08/30 04:39:58;;;;;;;;;;;;;;;16.36;77.46;100322.88;4178881;28;20007;-68
2023/08/30 04:42:02;;;;;;;;;;;;;;;16.35;77.67;100318.50;4211701;28;20014;-68
2023/08/30 04:44:06;;;;;;;;;;;;;;;16.34;77.64;100325.81;4188270;28;20024;-67
2023/08/30 04:46:08;;;;;;;;;;;;;;;16.34;77.54;100317.63;4195186;28;20023;-67
2023/08/30 04:48:10;;;;;;;;;;;;;;;16.33;77.68;100317.88;4194334;28;20028;-67
2023/08/30 04:50:12;;;;;;;;;;;;;;;16.33;77.67;100313.25;4196417;28;20015;-67
2023/08/30 04:52:14;;;;;;;;;;;;;;;16.33;77.62;100316.00;4194777;28;20393;-68
2023/08/30 04:54:16;;;;;;;;;;;;;;;16.32;77.72;100316.22;4196068;28;19929;-66
2023/08/30 04:56:18;;;;;;;;;;;;;;;16.32;77.59;100308.88;4185772;28;20016;-67
2023/08/30 04:58:20;;;;;;;;;;;;;;;16.33;77.82;100324.16;4196369;28;20027;-67
2023/08/30 05:00:24;;;;;;;;;;;;;;;16.34;77.65;100322.25;4195209;28;20015;-67
2023/08/30 05:02:26;;;;;;;;;;;;;;;16.33;77.69;100332.34;4195460;28;20458;-67
2023/08/30 05:04:37;;;;;;;;;;;;;;;16.33;77.96;100331.50;4188951;28;20023;-66
2023/08/30 05:06:39;;;;;;;;;;;;;;;16.33;77.83;100339.66;4195483;28;20469;-67
2023/08/30 05:08:41;;;;;;;;;;;;;;;16.32;78.08;100338.00;4196634;28;20018;-67
2023/08/30 05:10:43;;;;;;;;;;;;;;;16.31;77.96;100344.50;4194870;28;20026;-67
2023/08/30 05:12:51;;;;;;;;;;;;;;;16.30;78.08;100343.69;4195446;28;20031;-67
2023/08/30 05:14:53;;;;;;;;;;;;;;;16.31;78.05;100348.06;4194331;28;19925;-67
2023/08/30 05:16:57;;;;;;;;;;;;;;;16.30;78.05;100346.41;4196417;28;20437;-66
2023/08/30 05:18:59;;;;;;;;;;;;;;;16.30;78.27;100345.56;4185721;28;20027;-67
2023/08/30 05:21:03;;;;;;;;;;;;;;;16.27;78.05;100346.00;4186464;28;20014;-71
2023/08/30 05:23:06;;;;;;;;;;;;;;;16.28;78.54;100339.50;4211617;28;20019;-67
2023/08/30 05:25:08;;;;;;;;;;;;;;;16.29;78.45;100324.84;4195382;28;20011;-67
2023/08/30 05:27:11;;;;;;;;;;;;;;;16.29;78.45;100325.66;4196359;28;20015;-67
2023/08/30 05:29:16;;;;;;;;;;;;;;;16.29;78.18;100319.38;4195409;28;20019;-67
2023/08/30 05:31:17;;;;;;;;;;;;;;;16.29;78.37;100322.13;4193584;28;20022;-67
2023/08/30 05:33:46;;;;;;;;;;;;;;;16.29;78.57;100322.94;4187156;28;20026;-67
2023/08/30 05:36:08;;;;;;;;;;;;;;;16.29;78.47;100316.66;4195064;28;20407;-67
2023/08/30 05:38:37;;;;;;;;;;;;;;;16.30;78.34;100323.75;4192779;28;20056;-67
2023/08/30 05:41:18;;;;;;;;;;;;;;;16.31;78.30;100322.72;4183770;28;20030;-67
2023/08/30 05:43:20;;;;;;;;;;;;;;;16.31;78.32;100318.09;4194119;28;20027;-67
2023/08/30 05:45:24;;;;;;;;;;;;;;;16.31;78.30;100318.09;4195625;28;20027;-67
2023/08/30 05:47:26;;;;;;;;;;;;;;;16.33;78.46;100317.88;4195909;28;20352;-67
2023/08/30 05:49:29;;;;;;;;;;;;;;;16.33;78.40;100318.72;4192082;28;20018;-67
2023/08/30 05:51:31;;;;;;;;;;;;;;;16.34;78.16;100314.91;4210229;28;20572;-67
2023/08/30 05:53:33;;;;;;;;;;;;;;;16.34;78.16;100323.09;4193934;28;20018;-68
2023/08/30 05:55:37;;;;;;;;;;;;;;;16.35;78.12;100318.50;4194160;28;20015;-67
2023/08/30 05:57:39;;;;;;;;;;;;;;;16.35;78.18;100311.13;4194299;28;20027;-67
2023/08/30 05:59:41;;;;;;;;;;;;;;;16.37;78.48;100321.81;4194032;28;19932;-68
2023/08/30 06:01:43;;;;;;;;;;;;;;;16.36;78.40;100312.81;4195437;28;20342;-67
2023/08/30 06:03:45;;;;;;;;;;;;;;;16.38;78.42;100305.22;4194236;28;20011;-67
2023/08/30 06:05:49;;;;;;;;;;;;;;;16.39;78.65;100296.00;4190621;28;20019;-67
2023/08/30 06:07:51;;;;;;;;;;;;;;;16.42;78.51;100302.06;4193030;28;20362;-67
2023/08/30 06:09:53;;;;;;;;;;;;;;;16.42;78.27;100304.78;4193836;28;20035;-67
2023/08/30 06:11:58;;;;;;;;;;;;;;;16.44;78.34;100308.09;4193625;28;20023;-66
2023/08/30 06:14:00;;;;;;;;;;;;;;;16.44;78.34;100314.41;4194449;28;20042;-66
2023/08/30 06:16:02;;;;;;;;;;;;;;;16.45;78.03;100316.06;4195486;28;20023;-66
2023/08/30 06:18:04;;;;;;;;;;;;;;;16.47;78.50;100308.47;4195689;28;20040;-66
2023/08/30 06:20:07;;;;;;;;;;;;;;;16.48;78.09;100309.34;4196034;28;19924;-66
2023/08/30 06:22:13;;;;;;;;;;;;;;;16.49;78.08;100305.53;4195279;28;20369;-67
2023/08/30 06:24:15;;;;;;;;;;;;;;;16.50;78.14;100302.56;4195288;28;20028;-67
2023/08/30 06:26:17;;;;;;;;;;;;;;;16.52;78.06;100295.03;4196027;28;20044;-66
2023/08/30 06:28:19;;;;;;;;;;;;;;;16.53;78.05;100299.41;4194926;28;20011;-67
2023/08/30 06:30:22;;;;;;;;;;;;;;;16.54;77.75;100292.91;4195150;28;20036;-66
2023/08/30 06:32:24;;;;;;;;;;;;;;;16.55;77.74;100289.13;4195116;28;20019;-66
2023/08/30 06:34:26;;;;;;;;;;;;;;;16.57;77.83;100295.16;4194326;28;20027;-66
2023/08/30 06:36:28;;;;;;;;;;;;;;;16.60;77.74;100304.78;4186918;28;20012;-66
2023/08/30 06:38:31;;;;;;;;;;;;;;;16.61;77.69;100298.25;4193698;28;20007;-66
2023/08/30 06:40:33;;;;;;;;;;;;;;;16.64;77.63;100300.53;4194353;28;19928;-66
2023/08/30 06:42:35;;;;;;;;;;;;;;;16.65;77.38;100304.94;4194848;28;20015;-66
2023/08/30 06:44:37;;;;;;;;;;;;;;;16.68;77.39;100292.75;4193965;28;20039;-66
2023/08/30 06:46:39;;;;;;;;;;;;;;;16.71;77.43;100295.03;4196129;28;20450;-66
2023/08/30 06:48:41;;;;;;;;;;;;;;;16.71;77.16;100295.84;4195762;28;20011;-66
2023/08/30 06:50:43;;;;;;;;;;;;;;;16.73;76.95;100287.44;4195481;28;20035;-66
2023/08/30 06:52:45;;;;;;;;;;;;;;;16.73;77.03;100290.16;4195544;28;20381;-67
2023/08/30 06:54:49;;;;;;;;;;;;;;;16.75;76.95;100290.75;4195478;28;20015;-66
2023/08/30 06:57:00;;;;;;;;;;;;;;;16.75;76.80;100290.75;4195160;28;20115;-67
2023/08/30 06:59:02;;;;;;;;;;;;;;;16.78;76.75;100297.66;4195020;28;20032;-67
2023/08/30 07:01:04;;;;;;;;;;;;;;;16.81;76.56;100299.94;4194663;28;20030;-66
2023/08/30 07:03:06;;;;;;;;;;;;;;;16.81;76.34;100291.75;4193966;28;20118;-67
2023/08/30 07:05:08;;;;;;;;;;;;;;;16.81;76.21;100292.56;4195245;28;19960;-67
2023/08/30 07:07:10;;;;;;;;;;;;;;;16.84;76.55;100294.00;4186645;28;19979;-67
2023/08/30 07:09:13;;;;;;;;;;;;;;;16.86;76.72;100291.91;4194612;28;20019;-67
2023/08/30 07:11:16;;;;;;;;;;;;;;;16.88;76.35;100296.09;4194899;28;20015;-67
2023/08/30 07:13:18;;;;;;;;;;;;;;;16.89;75.87;100289.56;4195312;28;20023;-67
2023/08/30 07:15:19;;;;;;;;;;;;;;;16.91;75.92;100286.59;4196084;28;20047;-66
2023/08/30 07:17:21;;;;;;;;;;;;;;;16.93;75.97;100284.50;4198344;28;19932;-66
2023/08/30 07:19:22;;;;;;;;;;;;;;;16.93;76.02;100293.50;4197874;28;20019;-66
2023/08/30 07:21:24;;;;;;;;;;;;;;;16.96;76.12;100289.50;4198269;28;19932;-66
2023/08/30 07:23:25;;;;;;;;;;;;;;;16.98;75.85;100290.06;4197592;28;20043;-66
2023/08/30 07:25:27;;;;;;;;;;;;;;;16.99;75.65;100282.72;4199036;28;19924;-66
2023/08/30 07:27:30;;;;;;;;;;;;;;;17.02;75.48;100290.44;4198250;28;20466;-66
2023/08/30 07:29:32;;;;;;;;;;;;;;;17.04;75.81;100291.88;4198513;28;20023;-66
2023/08/30 07:31:33;;;;;;;;;;;;;;;17.05;75.80;100293.56;4197831;28;20030;-66
2023/08/30 07:33:36;;;;;;;;;;;;;;;17.07;76.04;100288.69;4198747;28;19936;-66
2023/08/30 07:35:39;;;;;;;;;;;;;;;17.09;75.83;100297.47;4197741;28;20019;-65
2023/08/30 07:37:41;;;;;;;;;;;;;;;17.11;75.41;100297.25;4197764;28;20016;-66
2023/08/30 07:39:45;;;;;;;;;;;;;;;17.12;75.23;100301.66;4197850;28;20019;-65
2023/08/30 07:41:47;;;;;;;;;;;;;;;17.14;75.24;100299.50;4197806;28;19959;-67
2023/08/30 07:43:51;;;;;;;;;;;;;;;17.16;75.10;100299.28;4198026;28;20019;-67
2023/08/30 07:45:53;;;;;;;;;;;;;;;17.18;74.84;100300.72;4198287;28;20090;-66
2023/08/30 07:47:55;;;;;;;;;;;;;;;17.19;74.59;100305.09;4197773;28;20015;-67
2023/08/30 07:49:57;;;;;;;;;;;;;;;17.20;74.79;100301.31;4196075;28;20023;-67
2023/08/30 07:51:58;;;;;;;;;;;;;;;17.20;74.86;100303.22;4195902;28;20098;-66
2023/08/30 07:54:00;;;;;;;;;;;;;;;17.22;74.99;100312.00;4196517;28;19960;-67
2023/08/30 07:56:02;;;;;;;;;;;;;;;17.23;74.93;100314.50;4197551;28;20020;-67
2023/08/30 07:58:04;;;;;;;;;;;;;;;17.24;74.67;100312.59;4196559;28;20435;-67
2023/08/30 08:00:09;;;;;;;;;;;;;;;17.26;74.63;100313.22;4197529;28;20380;-67
2023/08/30 08:02:13;;;;;;;;;;;;;;;17.26;74.53;100314.03;4196811;28;19932;-67
2023/08/30 08:04:15;;;;;;;;;;;;;;;17.27;74.39;100312.13;4197593;28;20032;-68
2023/08/30 08:06:16;;;;;;;;;;;;;;;17.25;74.51;100295.16;4196191;28;20429;-67
2023/08/30 08:08:18;;;;;;;;;;;;;;;17.29;74.78;100310.03;4196201;28;20002;-68
2023/08/30 08:10:20;;;;;;;;;;;;;;;17.31;74.59;100307.06;4196843;28;20023;-67
2023/08/30 08:12:22;;;;;;;;;;;;;;;17.31;74.53;100309.78;4196380;28;20007;-67
2023/08/30 08:14:24;;;;;;;;;;;;;;;17.31;74.45;100307.88;4197643;28;20018;-67
2023/08/30 08:16:28;;;;;;;;;;;;;;;17.33;74.80;100310.38;4193977;28;20011;-67
2023/08/30 08:18:30;;;;;;;;;;;;;;;17.33;74.39;100313.94;4195675;28;20023;-67
2023/08/30 08:20:33;;;;;;;;;;;;;;;17.34;74.34;100309.31;4196798;28;20016;-67
2023/08/30 08:22:35;;;;;;;;;;;;;;;17.36;74.15;100315.38;4195742;28;19971;-67
2023/08/30 08:24:36;;;;;;;;;;;;;;;17.36;74.29;100305.28;4197129;28;20422;-67
2023/08/30 08:26:40;;;;;;;;;;;;;;;17.36;74.30;100302.56;4196052;28;20015;-67
2023/08/30 08:28:41;;;;;;;;;;;;;;;17.37;74.34;100314.31;4196420;28;20019;-67
2023/08/30 08:30:45;;;;;;;;;;;;;;;17.39;74.16;100306.72;4197937;28;19974;-67
2023/08/30 08:32:48;;;;;;;;;;;;;;;17.39;74.40;100296.63;4195865;28;20019;-67
2023/08/30 08:34:50;;;;;;;;;;;;;;;17.41;74.10;100301.84;4197260;28;20019;-66
2023/08/30 08:36:52;;;;;;;;;;;;;;;17.41;74.00;100294.50;4196478;28;20436;-66
2023/08/30 08:38:54;;;;;;;;;;;;;;;17.41;73.82;100294.50;4196943;28;20027;-66
2023/08/30 08:41:03;;;;;;;;;;;;;;;17.41;73.92;100304.59;4195959;28;20400;-67
2023/08/30 08:43:05;;;;;;;;;;;;;;;17.42;73.64;100292.59;4197213;28;20027;-66
2023/08/30 08:45:07;;;;;;;;;;;;;;;17.45;73.50;100292.16;4195989;28;20038;-66
2023/08/30 08:47:12;;;;;;;;;;;;;;;17.46;73.55;100296.50;4197242;28;20019;-65
2023/08/30 08:49:16;;;;;;;;;;;;;;;17.48;73.46;100294.41;4197274;28;20018;-66
2023/08/30 08:51:17;;;;;;;;;;;;;;;17.49;73.41;100285.13;4195112;28;20534;-66
2023/08/30 08:53:19;;;;;;;;;;;;;;;17.51;73.55;100293.94;4198596;28;20019;-66
2023/08/30 08:55:21;;;;;;;;;;;;;;;17.52;73.25;100286.56;4197096;28;20027;-66
2023/08/30 08:57:23;;;;;;;;;;;;;;;17.53;73.28;100282.78;4196769;28;20027;-67
2023/08/30 08:59:25;;;;;;;;;;;;;;;17.55;73.00;100283.38;4195808;28;20257;-66
2023/08/30 09:01:28;;;;;;;;;;;;;;;17.57;72.90;100282.09;4195741;28;20019;-66
2023/08/30 09:03:30;;;;;;;;;;;;;;;17.60;72.90;100286.22;4194754;28;19932;-67
2023/08/30 09:05:33;;;;;;;;;;;;;;;17.61;72.77;100283.25;4195993;28;20003;-67
2023/08/30 09:07:38;;;;;;;;;;;;;;;17.64;72.52;100284.69;4196234;28;20039;-66
2023/08/30 09:09:40;;;;;;;;;;;;;;;17.65;72.52;100281.72;4196035;28;20482;-67
2023/08/30 09:11:42;;;;;;;;;;;;;;;17.68;72.65;100279.59;4196205;28;20031;-67
2023/08/30 09:13:44;;;;;;;;;;;;;;;17.71;72.27;100276.38;4195204;28;20062;-66
2023/08/30 09:15:46;;;;;;;;;;;;;;;17.73;72.10;100285.19;4196515;28;20035;-66
2023/08/30 09:17:48;;;;;;;;;;;;;;;17.76;71.81;100280.09;4196906;28;20011;-66
2023/08/30 09:19:50;;;;;;;;;;;;;;;17.78;71.79;100271.66;4195073;28;20035;-66
2023/08/30 09:21:53;;;;;;;;;;;;;;;17.81;71.94;100272.00;4196722;28;20705;-68
2023/08/30 09:23:59;;;;;;;;;;;;;;;17.84;71.86;100270.72;4196876;28;19998;-69
2023/08/30 09:26:02;;;;;;;;;;;;;;;17.87;71.71;100277.59;4197499;28;20970;-69
2023/08/30 09:28:04;;;;;;;;;;;;;;;17.89;71.64;100276.31;4195388;28;20401;-69
2023/08/30 09:30:08;;;;;;;;;;;;;;;17.92;71.51;100272.28;4196100;28;20032;-69
2023/08/30 09:32:09;;;;;;;;;;;;;;;17.93;71.56;100280.25;4195474;28;20015;-68
2023/08/30 09:34:11;;;;;;;;;;;;;;;17.96;71.41;100271.59;4196084;28;20011;-68
2023/08/30 09:36:12;;;;;;;;;;;;;;;17.97;71.42;100270.50;4197030;28;20023;-68
2023/08/30 09:38:19;;;;;;;;;;;;;;;17.98;71.39;100263.97;4195434;28;20036;-68
2023/08/30 09:40:22;;;;;;;;;;;;;;;18.00;71.36;100269.19;4196984;28;20052;-68
2023/08/30 09:42:24;;;;;;;;;;;;;;;18.01;71.37;100270.88;4195850;28;20022;-68
2023/08/30 09:44:30;;;;;;;;;;;;;;;18.03;71.32;100273.38;4196071;28;19948;-68
2023/08/30 09:46:32;;;;;;;;;;;;;;;18.04;71.35;100270.41;4196732;28;20022;-67
2023/08/30 09:48:34;;;;;;;;;;;;;;;18.06;71.27;100270.16;4195539;28;20055;-68
2023/08/30 09:50:35;;;;;;;;;;;;;;;18.06;71.15;100270.97;4195726;28;20031;-68
2023/08/30 09:52:37;;;;;;;;;;;;;;;18.09;71.41;100266.97;4196062;28;20011;-68
2023/08/30 09:54:41;;;;;;;;;;;;;;;18.09;71.36;100269.69;4196860;28;20012;-68
2023/08/30 09:56:43;;;;;;;;;;;;;;;18.11;71.11;100267.53;4195939;28;20028;-68
2023/08/30 09:58:46;;;;;;;;;;;;;;;18.12;70.96;100263.72;4194993;28;19967;-68
2023/08/30 10:00:48;;;;;;;;;;;;;;;18.13;71.11;100259.94;4196510;28;20366;-69
2023/08/30 10:02:50;;;;;;;;;;;;;;;18.15;70.91;100263.25;4195797;28;20043;-68
2023/08/30 10:04:52;;;;;;;;;;;;;;;18.16;70.96;100254.81;4196165;28;19931;-69
2023/08/30 10:06:53;;;;;;;;;;;;;;;18.18;70.92;100252.69;4195881;28;20019;-69
2023/08/30 10:08:55;;;;;;;;;;;;;;;18.19;70.88;100254.31;4195595;28;20363;-69
2023/08/30 10:10:57;;;;;;;;;;;;;;;18.21;70.59;100248.63;4195348;28;20039;-69
2023/08/30 10:12:59;;;;;;;;;;;;;;;18.24;70.80;100252.78;4195777;28;20011;-69
2023/08/30 10:15:01;;;;;;;;;;;;;;;18.25;70.70;100247.09;4195732;28;20373;-68
2023/08/30 10:17:04;;;;;;;;;;;;;;;18.27;70.75;100247.66;4195355;28;20371;-68
2023/08/30 10:19:07;;;;;;;;;;;;;;;18.28;70.37;100243.88;4195129;28;20011;-69
2023/08/30 10:21:09;;;;;;;;;;;;;;;18.31;70.60;100248.03;4194088;28;20027;-68
2023/08/30 10:23:12;;;;;;;;;;;;;;;18.33;70.37;100240.41;4195261;28;20023;-69
2023/08/30 10:25:19;;;;;;;;;;;;;;;18.35;70.41;100238.25;4196109;28;20031;-69
2023/08/30 10:27:22;;;;;;;;;;;;;;;18.37;70.40;100247.06;4195532;28;20012;-68
2023/08/30 10:29:25;;;;;;;;;;;;;;;18.40;70.40;100246.59;4195517;28;20019;-68
2023/08/30 10:31:28;;;;;;;;;;;;;;;18.41;70.15;100242.75;4195075;28;20028;-69